Time;durP1;ratioP1;P1;durP2;ratioP2;P2;SDS_P1;SDS_P2;PMS_P1;PMS_P2;Temp;Humidity;BMP_temperature;BMP_pressure;BME280_temperature;BME280_humidity;BME280_pressure;Samples;Min_cycle;Max_cycle;Signal;HPM_P1;HPM_P2
2022/05/22 00:01:52;;;;;;;13.25;5.47;;;12.30;99.90;;;;;;5095628;28;20040;-63
2022/05/22 00:04:17;;;;;;;9.50;4.97;;;12.30;99.90;;;;;;5079347;28;20089;-65
2022/05/22 00:06:43;;;;;;;12.57;5.50;;;12.30;99.90;;;;;;5113496;28;20051;-63
2022/05/22 00:09:09;;;;;;;13.88;5.75;;;12.20;99.90;;;;;;5095427;28;20101;-63
2022/05/22 00:11:34;;;;;;;12.30;5.28;;;12.20;99.90;;;;;;5095641;28;20157;-64
2022/05/22 00:14:01;;;;;;;12.68;5.60;;;12.20;99.90;;;;;;5114050;28;20035;-64
2022/05/22 00:16:41;;;;;;;13.25;5.50;;;12.10;99.90;;;;;;5095586;28;20040;-63
2022/05/22 00:19:25;;;;;;;11.90;5.32;;;12.10;99.90;;;;;;5095798;28;20051;-65
2022/05/22 00:21:51;;;;;;;13.60;5.10;;;12.10;99.90;;;;;;5113816;28;20043;-63
2022/05/22 00:24:19;;;;;;;10.45;5.20;;;12.00;99.90;;;;;;5113874;28;20035;-66
2022/05/22 00:26:46;;;;;;;12.27;5.80;;;12.00;99.90;;;;;;5112937;28;20508;-63
2022/05/22 00:29:12;;;;;;;12.27;5.20;;;11.90;99.90;;;;;;5095561;28;20047;-63
2022/05/22 00:31:38;;;;;;;14.18;5.80;;;11.90;99.90;;;;;;5095138;28;20089;-63
2022/05/22 00:34:04;;;;;;;12.60;5.68;;;11.90;99.90;;;;;;5113591;28;20369;-63
2022/05/22 00:36:30;;;;;;;13.70;5.82;;;11.90;99.90;;;;;;5078452;28;20039;-64
2022/05/22 00:38:56;;;;;;;10.23;5.13;;;11.80;99.90;;;;;;5113210;28;20035;-63
2022/05/22 00:41:22;;;;;;;10.40;5.70;;;11.80;99.90;;;;;;5095289;28;20048;-63
2022/05/22 00:43:53;;;;;;;13.18;6.10;;;11.80;99.90;;;;;;5094643;28;20050;-65
2022/05/22 00:46:20;;;;;;;13.50;5.93;;;11.80;99.90;;;;;;5078427;28;20062;-65
2022/05/22 00:48:48;;;;;;;15.10;6.93;;;11.80;99.90;;;;;;5095099;28;20089;-64
2022/05/22 00:51:20;;;;;;;12.10;6.20;;;11.70;99.90;;;;;;5113359;28;20100;-63
2022/05/22 00:53:51;;;;;;;13.32;6.10;;;11.70;99.90;;;;;;5094657;28;20055;-65
2022/05/22 00:56:20;;;;;;;10.77;6.10;;;11.70;99.90;;;;;;5112796;28;20397;-63
2022/05/22 00:58:50;;;;;;;14.85;6.78;;;11.70;99.90;;;;;;5112641;28;20131;-63
2022/05/22 01:01:16;;;;;;;10.32;5.97;;;11.70;99.90;;;;;;5112742;28;20043;-63
2022/05/22 01:03:41;;;;;;;12.48;6.68;;;11.60;99.90;;;;;;5112502;28;20125;-63
2022/05/22 01:06:20;;;;;;;10.98;6.32;;;11.60;99.90;;;;;;5112831;28;20069;-63
2022/05/22 01:08:47;;;;;;;17.30;6.88;;;11.60;99.90;;;;;;5112481;28;20089;-64
2022/05/22 01:11:15;;;;;;;17.08;7.50;;;11.60;99.90;;;;;;5094669;28;20442;-63
2022/05/22 01:13:47;;;;;;;11.68;6.38;;;11.60;99.90;;;;;;5094189;28;20052;-64
2022/05/22 01:16:13;;;;;;;14.48;7.22;;;11.60;99.90;;;;;;5112810;28;20047;-64
2022/05/22 01:18:46;;;;;;;13.20;6.40;;;11.50;99.90;;;;;;5094318;28;20074;-63
2022/05/22 01:21:14;;;;;;;13.50;6.55;;;11.50;99.90;;;;;;5112475;28;20466;-63
2022/05/22 01:23:40;;;;;;;13.38;6.70;;;11.50;99.90;;;;;;5112254;28;20480;-64
2022/05/22 01:26:06;;;;;;;15.02;7.25;;;11.40;99.90;;;;;;5112218;28;20035;-64
2022/05/22 01:28:32;;;;;;;12.18;6.72;;;11.40;99.90;;;;;;5112441;28;20130;-63
2022/05/22 01:30:57;;;;;;;13.50;6.75;;;11.40;99.90;;;;;;5077037;28;20046;-62
2022/05/22 01:33:23;;;;;;;11.55;7.32;;;11.40;99.90;;;;;;5112014;28;20048;-63
2022/05/22 01:35:49;;;;;;;16.15;7.00;;;11.40;99.90;;;;;;5112116;28;20387;-63
2022/05/22 01:38:14;;;;;;;15.15;6.88;;;11.40;99.90;;;;;;5112368;28;20040;-62
2022/05/22 01:40:40;;;;;;;11.00;6.95;;;11.40;99.90;;;;;;5112708;28;20043;-62
2022/05/22 01:43:06;;;;;;;12.45;6.43;;;11.40;99.90;;;;;;5093767;28;20477;-63
2022/05/22 01:45:32;;;;;;;15.15;6.88;;;11.30;99.90;;;;;;5111989;28;20048;-64
2022/05/22 01:47:57;;;;;;;18.25;7.85;;;11.30;99.90;;;;;;5111931;28;20047;-63
2022/05/22 01:50:23;;;;;;;14.73;6.88;;;11.30;99.90;;;;;;5112163;28;20384;-63
2022/05/22 01:52:49;;;;;;;14.25;6.72;;;11.30;99.90;;;;;;5111796;28;20047;-63
2022/05/22 01:55:16;;;;;;;14.32;7.30;;;11.30;99.90;;;;;;5111661;28;20570;-64
2022/05/22 01:57:42;;;;;;;14.57;7.45;;;11.20;99.90;;;;;;5111686;28;20511;-62
2022/05/22 02:00:12;;;;;;;14.82;7.20;;;11.20;99.90;;;;;;5093845;28;20096;-64
2022/05/22 02:02:37;;;;;;;14.18;6.70;;;11.10;99.90;;;;;;5112148;28;20134;-63
2022/05/22 02:05:03;;;;;;;12.20;6.85;;;11.10;99.90;;;;;;5111438;28;20083;-63
2022/05/22 02:10:14;;;;;;;13.65;6.90;;;11.10;99.90;;;;;;5111915;28;20043;-62
2022/05/22 02:12:39;;;;;;;14.38;6.90;;;11.10;99.90;;;;;;5111972;28;20055;-63
2022/05/22 02:15:06;;;;;;;12.63;6.43;;;11.00;99.90;;;;;;5111223;28;20071;-64
2022/05/22 02:17:32;;;;;;;12.18;6.57;;;11.00;99.90;;;;;;5111636;28;20480;-63
2022/05/22 02:19:58;;;;;;;16.02;7.22;;;11.00;99.90;;;;;;5093652;28;20494;-64
2022/05/22 02:22:24;;;;;;;12.73;6.63;;;11.00;99.90;;;;;;5093844;28;20130;-64
2022/05/22 02:24:53;;;;;;;12.93;6.97;;;11.00;99.90;;;;;;5093423;28;20048;-65
2022/05/22 02:27:19;;;;;;;11.65;6.47;;;10.90;99.90;;;;;;5094170;28;20423;-63
2022/05/22 02:29:45;;;;;;;11.65;6.22;;;10.90;99.90;;;;;;5111652;28;20506;-64
2022/05/22 02:32:11;;;;;;;11.93;6.20;;;10.90;99.90;;;;;;5115139;28;20039;-63
2022/05/22 02:34:37;;;;;;;14.40;6.53;;;10.90;99.90;;;;;;5115938;28;20134;-64
2022/05/22 02:37:03;;;;;;;12.15;6.43;;;10.80;99.90;;;;;;5097093;28;20092;-64
2022/05/22 02:39:29;;;;;;;14.88;6.68;;;10.90;99.90;;;;;;5081090;28;20108;-64
2022/05/22 02:42:04;;;;;;;13.63;7.25;;;10.90;99.90;;;;;;5115331;28;20044;-63
2022/05/22 02:44:30;;;;;;;13.50;5.85;;;10.80;99.90;;;;;;5097704;28;20039;-65
2022/05/22 02:46:56;;;;;;;15.68;7.15;;;10.90;99.90;;;;;;5115226;28;20104;-63
2022/05/22 02:49:21;;;;;;;15.48;6.80;;;10.80;99.90;;;;;;5115521;28;20110;-63
2022/05/22 02:51:47;;;;;;;14.68;6.57;;;10.80;99.90;;;;;;5115653;28;20176;-64
2022/05/22 02:54:13;;;;;;;15.80;7.28;;;10.80;99.90;;;;;;5096902;28;20058;-63
2022/05/22 02:56:40;;;;;;;13.13;6.82;;;10.80;99.90;;;;;;5096667;28;20065;-64
2022/05/22 02:59:06;;;;;;;14.63;6.18;;;10.80;99.90;;;;;;5114767;28;20043;-64
2022/05/22 03:01:32;;;;;;;12.73;6.68;;;10.80;99.90;;;;;;5097276;28;20100;-63
2022/05/22 03:03:57;;;;;;;16.98;6.82;;;10.70;99.90;;;;;;5115016;28;20079;-64
2022/05/22 03:06:38;;;;;;;14.13;6.43;;;10.70;99.90;;;;;;5115119;28;20043;-63
2022/05/22 03:09:09;;;;;;;14.38;7.00;;;10.70;99.90;;;;;;5079778;28;20058;-64
2022/05/22 03:11:37;;;;;;;16.17;7.00;;;10.70;99.90;;;;;;5097297;28;20052;-63
2022/05/22 03:14:03;;;;;;;14.05;7.10;;;10.70;99.90;;;;;;5097188;28;20077;-64
2022/05/22 03:16:29;;;;;;;10.68;6.78;;;10.70;99.90;;;;;;5114694;28;20115;-62
2022/05/22 03:18:55;;;;;;;14.45;7.50;;;10.70;99.90;;;;;;5114864;28;20043;-64
2022/05/22 03:21:20;;;;;;;12.88;6.90;;;10.70;99.90;;;;;;5114781;28;20392;-62
2022/05/22 03:23:46;;;;;;;13.27;7.00;;;10.70;99.90;;;;;;5096588;28;20079;-64
2022/05/22 03:26:12;;;;;;;12.88;7.40;;;10.70;99.90;;;;;;5113998;28;20059;-65
2022/05/22 03:28:38;;;;;;;12.95;7.05;;;10.70;99.90;;;;;;5114702;28;20047;-64
2022/05/22 03:31:04;;;;;;;13.88;7.75;;;10.70;99.90;;;;;;5096060;28;20106;-63
2022/05/22 03:33:30;;;;;;;13.40;7.70;;;10.70;99.90;;;;;;5114567;28;20075;-63
2022/05/22 03:35:55;;;;;;;15.07;7.10;;;10.60;99.90;;;;;;5114577;28;20039;-63
2022/05/22 03:38:21;;;;;;;15.95;7.57;;;10.60;99.90;;;;;;5096207;28;20050;-64
2022/05/22 03:40:48;;;;;;;14.18;7.22;;;10.60;99.90;;;;;;5096361;28;20489;-63
2022/05/22 03:43:17;;;;;;;13.05;6.95;;;10.70;99.90;;;;;;5113281;28;20496;-64
2022/05/22 03:45:44;;;;;;;14.43;7.30;;;10.70;99.90;;;;;;5114356;28;20093;-64
2022/05/22 03:48:11;;;;;;;16.60;7.35;;;10.60;99.90;;;;;;5095816;28;20079;-64
2022/05/22 03:50:37;;;;;;;16.05;6.82;;;10.60;99.90;;;;;;5096197;28;20449;-64
2022/05/22 03:53:03;;;;;;;17.13;7.50;;;10.70;99.90;;;;;;5114005;28;20043;-65
2022/05/22 03:55:30;;;;;;;14.88;7.00;;;10.70;99.90;;;;;;5113980;28;20087;-64
2022/05/22 03:57:56;;;;;;;15.20;7.32;;;10.70;99.90;;;;;;5114135;28;20081;-63
2022/05/22 04:00:23;;;;;;;14.07;6.72;;;10.70;99.90;;;;;;5113759;28;20675;-63
2022/05/22 04:02:49;;;;;;;16.02;6.80;;;10.70;99.90;;;;;;5114314;28;20097;-63
2022/05/22 04:05:15;;;;;;;17.75;6.93;;;10.70;99.90;;;;;;5113609;28;20054;-63
2022/05/22 04:07:43;;;;;;;13.23;7.03;;;10.70;99.90;;;;;;5114210;28;20123;-63
2022/05/22 04:10:10;;;;;;;12.43;6.82;;;10.80;99.90;;;;;;5113622;28;20047;-61
2022/05/22 04:12:37;;;;;;;12.65;6.53;;;10.80;99.90;;;;;;5114004;28;20066;-63
2022/05/22 04:15:08;;;;;;;12.43;6.75;;;10.80;99.90;;;;;;5113853;28;20124;-64
2022/05/22 04:17:34;;;;;;;13.30;6.68;;;10.80;99.90;;;;;;5113750;28;20040;-63
2022/05/22 04:20:00;;;;;;;13.88;6.65;;;10.90;99.90;;;;;;5114209;28;20069;-64
2022/05/22 04:22:26;;;;;;;13.35;6.35;;;11.00;99.90;;;;;;5113645;28;20040;-64
2022/05/22 04:27:41;;;;;;;16.33;7.78;;;11.10;99.90;;;;;;5113695;28;20089;-64
2022/05/22 04:30:09;;;;;;;12.40;6.50;;;11.20;99.90;;;;;;5113498;28;20084;-65
2022/05/22 04:32:35;;;;;;;15.27;6.15;;;11.40;99.90;;;;;;5095120;28;20126;-64
2022/05/22 04:35:00;;;;;;;12.90;6.55;;;11.50;99.90;;;;;;5113503;28;20131;-63
2022/05/22 04:37:26;;;;;;;15.23;6.28;;;11.60;99.90;;;;;;5077896;28;20036;-63
2022/05/22 04:39:52;;;;;;;12.27;5.40;;;11.80;99.90;;;;;;5113177;28;20126;-63
2022/05/22 04:42:18;;;;;;;13.63;5.05;;;12.10;99.90;;;;;;5113047;28;20059;-62
2022/05/22 04:44:43;;;;;;;12.25;5.47;;;12.50;99.90;;;;;;5113240;28;20126;-63
2022/05/22 04:47:09;;;;;;;9.68;4.60;;;13.10;99.90;;;;;;5113111;28;20040;-69
2022/05/22 04:49:35;;;;;;;8.48;4.82;;;13.70;99.90;;;;;;5113132;28;20070;-64
2022/05/22 04:52:00;;;;;;;11.80;4.95;;;14.40;99.90;;;;;;5113142;28;20067;-64
2022/05/22 04:54:26;;;;;;;14.75;4.63;;;14.90;99.90;;;;;;5112514;28;20059;-63
2022/05/22 04:56:55;;;;;;;13.25;4.47;;;15.40;99.90;;;;;;5077699;28;20058;-63
2022/05/22 04:59:21;;;;;;;9.98;3.83;;;15.80;99.90;;;;;;5094482;28;20047;-64
2022/05/22 05:01:47;;;;;;;10.27;4.72;;;16.40;99.90;;;;;;5094921;28;20052;-64
2022/05/22 05:04:13;;;;;;;13.32;4.43;;;16.90;99.90;;;;;;5094336;28;20044;-64
2022/05/22 05:06:39;;;;;;;10.68;3.85;;;17.30;99.90;;;;;;5112917;28;20050;-63
2022/05/22 05:09:05;;;;;;;12.30;3.90;;;17.80;99.90;;;;;;5094741;28;20071;-64
2022/05/22 05:11:31;;;;;;;10.65;4.18;;;18.20;99.90;;;;;;5094261;28;20121;-64
2022/05/22 05:13:56;;;;;;;9.68;4.07;;;18.60;99.90;;;;;;5112543;28;20040;-65
2022/05/22 05:16:22;;;;;;;13.40;4.38;;;19.00;99.90;;;;;;5112178;28;20465;-63
2022/05/22 05:18:48;;;;;;;9.90;3.75;;;19.40;99.90;;;;;;5077791;28;20070;-62
2022/05/22 05:21:17;;;;;;;10.77;3.60;;;19.70;99.90;;;;;;5094371;28;20104;-65
2022/05/22 05:23:42;;;;;;;10.50;3.70;;;20.00;99.90;;;;;;5094392;28;20117;-63
2022/05/22 05:26:08;;;;;;;10.50;3.70;;;20.40;99.90;;;;;;5094391;28;20043;-62
2022/05/22 05:28:35;;;;;;;10.65;3.60;;;20.70;99.90;;;;;;5112056;28;20102;-62
2022/05/22 05:31:01;;;;;;;9.57;3.67;;;21.00;99.90;;;;;;5112496;28;20079;-63
2022/05/22 05:33:27;;;;;;;11.15;3.88;;;21.30;99.90;;;;;;5111898;28;20083;-63
2022/05/22 05:35:52;;;;;;;12.45;3.70;;;21.50;99.90;;;;;;5093715;28;20117;-63
2022/05/22 05:38:18;;;;;;;10.90;3.67;;;21.90;99.90;;;;;;5060239;28;20180;-63
2022/05/22 05:40:48;;;;;;;11.15;3.88;;;22.20;99.80;;;;;;5112161;28;20048;-64
2022/05/22 05:43:14;;;;;;;11.50;3.50;;;22.40;99.30;;;;;;5093978;28;20046;-64
2022/05/22 05:45:42;;;;;;;14.25;4.22;;;22.70;98.70;;;;;;5111930;28;20043;-64
2022/05/22 05:48:08;;;;;;;11.73;3.90;;;23.00;98.40;;;;;;5112119;28;20101;-63
2022/05/22 05:50:34;;;;;;;14.25;3.65;;;23.20;97.80;;;;;;5093438;28;20044;-63
2022/05/22 05:53:01;;;;;;;9.80;3.50;;;23.40;97.20;;;;;;5112110;28;20054;-64
2022/05/22 05:55:28;;;;;;;8.40;3.17;;;23.60;96.90;;;;;;5111035;28;20493;-64
2022/05/22 05:57:54;;;;;;;9.40;3.50;;;23.70;96.60;;;;;;5111917;28;20083;-64
2022/05/22 06:00:23;;;;;;;13.18;3.83;;;24.00;96.70;;;;;;5093323;28;20043;-64
2022/05/22 06:02:48;;;;;;;8.90;3.47;;;23.90;95.70;;;;;;5111786;28;20040;-64
2022/05/22 06:05:15;;;;;;;12.85;3.88;;;24.10;95.50;;;;;;5110968;28;20502;-63
2022/05/22 06:07:40;;;;;;;13.35;3.58;;;24.40;94.80;;;;;;5093318;28;20083;-63
2022/05/22 06:10:09;;;;;;;10.85;3.70;;;24.80;95.00;;;;;;5093652;28;20090;-64
2022/05/22 06:12:35;;;;;;;11.18;3.63;;;24.90;94.20;;;;;;5093496;28;20051;-62
2022/05/22 06:15:01;;;;;;;12.13;4.15;;;25.10;94.10;;;;;;5111556;28;20445;-63
2022/05/22 06:17:32;;;;;;;8.60;3.80;;;25.20;93.10;;;;;;5092942;28;20036;-64
2022/05/22 06:19:58;;;;;;;13.40;4.45;;;25.00;93.30;;;;;;5111721;28;20119;-63
2022/05/22 06:22:27;;;;;;;13.80;4.70;;;24.90;93.30;;;;;;5111368;28;20086;-64
2022/05/22 06:24:53;;;;;;;9.27;3.88;;;24.90;93.30;;;;;;5093676;28;20091;-63
2022/05/22 06:27:19;;;;;;;10.82;4.07;;;25.10;93.20;;;;;;5111263;28;20044;-64
2022/05/22 06:29:45;;;;;;;10.00;4.20;;;25.50;92.60;;;;;;5111226;28;20039;-63
2022/05/22 06:32:13;;;;;;;11.98;3.78;;;25.50;92.30;;;;;;5093757;28;20463;-64
2022/05/22 06:34:41;;;;;;;12.45;4.22;;;25.80;92.20;;;;;;5092851;28;20396;-63
2022/05/22 06:37:12;;;;;;;8.38;3.63;;;26.10;91.70;;;;;;5093313;28;20043;-63
2022/05/22 06:39:51;;;;;;;10.73;3.97;;;26.30;91.50;;;;;;5093428;28;20052;-63
2022/05/22 06:42:20;;;;;;;11.35;3.90;;;26.50;91.40;;;;;;5111681;28;20082;-64
2022/05/22 06:44:55;;;;;;;9.40;3.30;;;26.60;90.30;;;;;;5093346;28;20044;-63
2022/05/22 06:47:21;;;;;;;8.50;3.15;;;26.70;89.40;;;;;;5111562;28;20055;-64
2022/05/22 06:49:47;;;;;;;7.38;2.78;;;27.20;90.10;;;;;;5092852;28;20044;-64
2022/05/22 06:52:13;;;;;;;13.70;3.20;;;27.20;87.60;;;;;;5111247;28;20185;-66
2022/05/22 06:54:39;;;;;;;10.93;3.30;;;27.60;86.60;;;;;;5092871;28;20055;-64
2022/05/22 06:57:05;;;;;;;8.90;3.50;;;27.70;86.20;;;;;;5111058;28;20047;-63
2022/05/22 06:59:31;;;;;;;9.10;3.08;;;27.90;85.00;;;;;;5092726;28;20059;-64
2022/05/22 07:02:00;;;;;;;8.57;2.90;;;28.00;84.90;;;;;;5093166;28;20040;-64
2022/05/22 07:04:26;;;;;;;7.80;2.92;;;28.10;83.10;;;;;;5111430;28;20046;-67
2022/05/22 07:06:52;;;;;;;7.65;2.88;;;28.10;81.30;;;;;;5093459;28;20048;-63
2022/05/22 07:09:18;;;;;;;9.55;2.88;;;28.20;80.20;;;;;;5111299;28;20077;-63
2022/05/22 07:11:45;;;;;;;9.68;2.85;;;28.40;79.60;;;;;;5110996;28;20116;-63
2022/05/22 07:14:16;;;;;;;8.93;2.67;;;28.30;80.40;;;;;;5111017;28;20083;-63
2022/05/22 07:16:42;;;;;;;9.27;2.78;;;28.80;79.60;;;;;;5110867;28;20418;-62
2022/05/22 07:19:10;;;;;;;9.45;2.80;;;28.80;77.30;;;;;;5114126;28;20043;-64
2022/05/22 07:21:35;;;;;;;7.38;2.67;;;28.90;77.90;;;;;;5096305;28;20047;-64
2022/05/22 07:24:01;;;;;;;9.85;2.90;;;29.10;77.10;;;;;;5114755;28;20056;-64
2022/05/22 07:26:28;;;;;;;8.68;3.00;;;29.10;76.90;;;;;;5114628;28;20194;-65
2022/05/22 07:28:55;;;;;;;8.75;2.92;;;29.00;76.30;;;;;;5114230;28;20083;-64
2022/05/22 07:31:23;;;;;;;9.30;2.90;;;29.10;76.00;;;;;;5114451;28;20044;-64
2022/05/22 07:33:49;;;;;;;8.32;2.60;;;29.00;75.80;;;;;;5095743;28;20049;-65
2022/05/22 07:36:16;;;;;;;7.75;2.88;;;29.00;75.50;;;;;;5114102;28;20108;-63
2022/05/22 07:38:43;;;;;;;8.13;2.75;;;29.10;76.00;;;;;;5095620;28;20055;-64
2022/05/22 07:41:09;;;;;;;8.95;2.70;;;29.10;76.10;;;;;;5095941;28;20047;-65
2022/05/22 07:43:35;;;;;;;9.07;2.83;;;29.30;74.80;;;;;;5113754;28;20553;-63
2022/05/22 07:46:01;;;;;;;7.25;2.78;;;29.30;74.80;;;;;;5114092;28;20388;-64
2022/05/22 07:48:26;;;;;;;8.95;2.72;;;29.20;74.90;;;;;;5114125;28;20043;-64
2022/05/22 07:51:00;;;;;;;9.23;3.03;;;29.30;75.00;;;;;;5113614;28;20039;-64
2022/05/22 07:53:27;;;;;;;9.65;2.95;;;29.60;75.40;;;;;;5113990;28;20050;-64
2022/05/22 07:55:54;;;;;;;7.85;2.88;;;29.70;74.60;;;;;;5113209;28;20208;-63
2022/05/22 07:58:21;;;;;;;8.00;2.50;;;30.00;74.30;;;;;;5095826;28;20054;-64
2022/05/22 08:00:49;;;;;;;10.05;2.92;;;30.00;74.80;;;;;;5113156;28;20488;-64
2022/05/22 08:03:16;;;;;;;7.90;2.40;;;29.80;74.50;;;;;;5095709;28;20085;-65
2022/05/22 08:05:42;;;;;;;7.70;2.40;;;30.10;74.00;;;;;;5113232;28;20047;-64
2022/05/22 08:08:09;;;;;;;8.10;2.65;;;30.10;73.70;;;;;;5113842;28;20100;-64
2022/05/22 08:10:36;;;;;;;7.35;2.42;;;29.70;72.90;;;;;;5113538;28;20048;-64
2022/05/22 08:13:04;;;;;;;7.63;2.72;;;29.10;73.00;;;;;;5113594;28;20101;-64
2022/05/22 08:15:32;;;;;;;7.30;2.53;;;28.20;74.20;;;;;;5095289;28;20051;-64
2022/05/22 08:17:59;;;;;;;8.30;2.47;;;28.20;74.50;;;;;;5113017;28;20472;-63
2022/05/22 08:20:26;;;;;;;6.90;2.58;;;28.60;75.00;;;;;;5113156;28;20050;-63
2022/05/22 08:22:59;;;;;;;8.98;2.90;;;28.60;73.90;;;;;;5112953;28;20492;-64
2022/05/22 08:25:27;;;;;;;7.13;2.17;;;28.60;73.50;;;;;;5113231;28;20472;-65
2022/05/22 08:27:54;;;;;;;5.00;1.98;;;29.00;73.00;;;;;;5094441;28;20048;-64
2022/05/22 08:30:20;;;;;;;6.43;2.33;;;29.30;73.60;;;;;;5113148;28;20056;-65
2022/05/22 08:32:48;;;;;;;7.75;2.17;;;29.60;71.80;;;;;;5112679;28;20047;-64
2022/05/22 08:35:17;;;;;;;7.45;2.10;;;29.40;70.60;;;;;;5095284;28;20047;-63
2022/05/22 08:37:43;;;;;;;5.47;1.83;;;28.40;70.90;;;;;;5112637;28;20046;-64
2022/05/22 08:40:12;;;;;;;7.97;2.53;;;27.50;71.30;;;;;;5113008;28;20052;-63
2022/05/22 08:42:47;;;;;;;7.15;2.20;;;27.00;71.90;;;;;;5112893;28;20396;-63
2022/05/22 08:45:20;;;;;;;7.38;2.63;;;27.40;73.40;;;;;;5095100;28;20388;-62
2022/05/22 08:48:01;;;;;;;;;;;28.10;72.80;;;;;;5113125;28;20043;-64
2022/05/22 08:50:29;;;;;;;8.00;2.53;;;28.60;72.50;;;;;;5112862;28;19927;-63
2022/05/22 08:53:14;;;;;;;6.10;2.10;;;28.80;71.70;;;;;;5112320;28;20100;-63
2022/05/22 08:58:56;;;;;;;7.82;2.50;;;29.60;71.90;;;;;;5112690;28;20063;-63
2022/05/22 09:01:34;;;;;;;8.27;2.15;;;29.10;71.50;;;;;;5112705;28;20077;-62
2022/05/22 09:04:08;;;;;;;6.20;2.05;;;28.30;69.60;;;;;;5111089;28;20481;-64
2022/05/22 09:06:41;;;;;;;9.13;3.00;;;27.50;70.20;;;;;;5093799;28;20081;-63
2022/05/22 09:09:07;;;;;;;8.68;2.45;;;27.20;72.00;;;;;;5094058;28;20086;-63
2022/05/22 09:12:09;;;;;;;8.60;2.25;;;26.80;72.70;;;;;;5112497;28;20079;-63
2022/05/22 09:15:01;;;;;;;6.43;2.15;;;26.30;72.50;;;;;;5077367;28;20051;-63
2022/05/22 09:17:43;;;;;;;6.88;2.17;;;25.90;73.40;;;;;;5112403;28;20457;-62
2022/05/22 09:20:13;;;;;;;6.53;2.35;;;26.10;73.40;;;;;;5112198;28;20054;-63
2022/05/22 09:23:26;;;;;;;8.98;2.33;;;26.60;73.20;;;;;;5112358;28;20051;-63
2022/05/22 09:26:24;;;;;;;6.90;2.10;;;27.10;72.90;;;;;;5112064;28;20477;-62
2022/05/22 09:29:11;;;;;;;7.35;2.58;;;27.30;73.50;;;;;;5022843;28;20112;-62
2022/05/22 09:32:09;;;;;;;5.60;2.00;;;27.90;73.00;;;;;;5112246;28;20090;-62
2022/05/22 09:34:40;;;;;;;6.78;1.90;;;28.40;70.10;;;;;;5104654;28;20535;-64
2022/05/22 09:37:24;;;;;;;6.05;2.10;;;28.70;70.60;;;;;;5111786;28;20039;-63
2022/05/22 09:40:07;;;;;;;;;;;28.70;69.50;;;;;;5111698;28;20492;-66
2022/05/22 09:42:39;;;;;;;6.32;2.10;;;28.60;70.90;;;;;;5112168;28;19926;-63
2022/05/22 09:45:27;;;;;;;6.00;2.63;;;28.90;71.10;;;;;;5111664;28;20093;-63
2022/05/22 09:48:11;;;;;;;8.85;2.28;;;28.90;69.90;;;;;;5093547;28;20077;-63
2022/05/22 09:50:59;;;;;;;5.18;1.48;;;28.90;71.10;;;;;;5111818;28;20039;-64
2022/05/22 09:53:34;;;;;;;6.63;1.92;;;28.40;69.40;;;;;;5111505;28;20496;-62
2022/05/22 09:56:25;;;;;;;4.57;1.70;;;28.20;70.40;;;;;;5111079;28;20052;-62
2022/05/22 09:59:09;;;;;;;6.05;2.05;;;27.90;67.80;;;;;;5111638;28;20501;-65
2022/05/22 10:01:43;;;;;;;6.85;1.92;;;27.70;67.70;;;;;;5111168;28;20054;-63
2022/05/22 10:04:12;;;;;;;6.05;2.05;;;27.50;68.70;;;;;;5092649;28;20052;-64
2022/05/22 10:06:47;;;;;;;7.30;1.88;;;27.30;69.40;;;;;;5076735;28;20366;-63
2022/05/22 10:09:31;;;;;;;5.10;1.80;;;27.30;69.80;;;;;;5111355;28;20044;-64
2022/05/22 10:12:03;;;;;;;6.47;1.88;;;27.10;68.90;;;;;;5111160;28;20040;-62
2022/05/22 10:15:00;;;;;;;5.97;1.85;;;27.00;70.10;;;;;;5093254;28;20083;-63
2022/05/22 10:17:44;;;;;;;5.93;2.05;;;26.80;69.90;;;;;;5111660;28;20082;-63
2022/05/22 10:20:34;;;;;;;6.22;2.00;;;26.70;70.50;;;;;;5111340;28;20051;-63
2022/05/22 10:23:03;;;;;;;4.28;1.70;;;26.50;70.60;;;;;;5111049;28;20051;-62
2022/05/22 10:25:46;;;;;;;7.90;2.35;;;26.40;70.80;;;;;;5111406;28;20096;-62
2022/05/22 10:28:22;;;;;;;7.50;2.00;;;26.00;70.80;;;;;;5093212;28;20047;-63
2022/05/22 10:30:54;;;;;;;7.15;2.15;;;25.50;72.60;;;;;;5093357;28;20047;-64
2022/05/22 10:33:35;;;;;;;6.77;1.87;;;25.40;71.60;;;;;;5093172;28;20050;-62
2022/05/22 10:36:15;;;;;;;4.97;1.80;;;24.80;71.80;;;;;;5092930;28;20047;-63
2022/05/22 10:38:54;;;;;;;3.47;1.40;;;24.30;73.50;;;;;;5111132;28;20074;-64
2022/05/22 10:44:22;;;;;;;6.30;1.70;;;23.90;73.10;;;;;;5110183;28;20481;-62
2022/05/22 10:46:50;;;;;;;7.20;1.67;;;24.00;73.00;;;;;;5093284;28;20051;-63
2022/05/22 10:49:23;;;;;;;6.60;1.98;;;23.90;73.00;;;;;;5110706;28;20496;-63
2022/05/22 10:52:22;;;;;;;5.25;1.95;;;23.80;73.10;;;;;;5112356;28;20523;-63
2022/05/22 10:54:52;;;;;;;5.93;1.83;;;23.90;73.00;;;;;;5100286;28;20561;-64
2022/05/22 10:57:21;;;;;;;5.70;1.80;;;24.10;73.00;;;;;;5114324;28;20058;-63
2022/05/22 10:59:48;;;;;;;6.70;1.70;;;24.30;74.90;;;;;;5115181;28;20047;-62
2022/05/22 11:02:32;;;;;;;5.50;2.08;;;24.60;73.20;;;;;;5096164;28;20059;-63
2022/05/22 11:04:59;;;;;;;5.32;1.60;;;24.70;71.70;;;;;;5096727;28;20123;-63
2022/05/22 11:07:34;;;;;;;7.28;2.15;;;24.70;73.00;;;;;;5114247;28;20522;-62
2022/05/22 11:10:25;;;;;;;4.03;1.40;;;24.60;72.40;;;;;;5114803;28;20158;-64
2022/05/22 11:12:59;;;;;;;7.03;1.98;;;24.50;73.30;;;;;;5114865;28;20052;-61
2022/05/22 11:15:28;;;;;;;5.07;1.63;;;24.30;74.30;;;;;;5114571;28;20160;-62
2022/05/22 11:18:10;;;;;;;5.80;1.95;;;24.30;72.40;;;;;;5079852;28;20185;-62
2022/05/22 11:21:17;;;;;;;6.38;1.85;;;24.40;73.10;;;;;;5096943;28;20055;-63
2022/05/22 11:23:51;;;;;;;6.00;1.70;;;24.40;72.50;;;;;;5064175;28;20384;-62
2022/05/22 11:26:35;;;;;;;5.05;1.80;;;24.10;72.90;;;;;;5114059;28;20429;-63
2022/05/22 11:29:44;;;;;;;5.38;1.80;;;23.80;73.00;;;;;;5096356;28;20052;-63
2022/05/22 11:32:35;;;;;;;5.63;1.92;;;23.90;73.30;;;;;;5011151;28;20430;-64
2022/05/22 11:35:03;;;;;;;5.78;2.00;;;24.00;73.20;;;;;;5114705;28;20043;-60
2022/05/22 11:37:53;;;;;;;6.05;1.90;;;24.20;73.30;;;;;;5114028;28;20047;-61
2022/05/22 11:40:54;;;;;;;5.22;1.83;;;24.30;73.20;;;;;;5114331;28;20051;-65
2022/05/22 11:43:38;;;;;;;4.65;1.70;;;24.40;71.80;;;;;;4994668;28;20057;-63
2022/05/22 11:46:28;;;;;;;5.78;1.60;;;24.20;72.70;;;;;;5087969;28;20146;-62
2022/05/22 11:49:12;;;;;;;5.50;1.80;;;24.10;72.80;;;;;;5114577;28;20318;-64
2022/05/22 11:55:22;;;;;;;6.53;1.67;;;23.80;73.80;;;;;;5070000;28;20067;-63
2022/05/22 11:57:56;;;;;;;4.95;1.70;;;23.90;73.30;;;;;;5073438;28;20102;-63
2022/05/22 12:00:37;;;;;;;4.43;1.52;;;24.00;73.40;;;;;;5089219;28;20052;-64
2022/05/22 12:03:24;;;;;;;3.88;1.67;;;24.00;73.90;;;;;;5072946;28;20045;-63
2022/05/22 12:05:58;;;;;;;5.53;1.65;;;23.80;74.30;;;;;;5072275;28;20049;-62
2022/05/22 12:08:33;;;;;;;5.53;1.48;;;23.40;74.80;;;;;;5088946;28;20052;-62
2022/05/22 12:11:07;;;;;;;6.10;1.70;;;23.30;74.90;;;;;;5073213;28;20490;-63
2022/05/22 12:13:55;;;;;;;6.43;2.10;;;23.40;74.90;;;;;;5088497;28;20428;-63
2022/05/22 12:16:24;;;;;;;8.93;2.00;;;23.40;75.20;;;;;;5071605;28;20079;-64
2022/05/22 12:19:11;;;;;;;4.55;1.50;;;23.10;75.30;;;;;;5071608;28;20045;-62
2022/05/22 12:21:43;;;;;;;6.45;1.60;;;23.10;75.70;;;;;;5073360;28;20071;-63
2022/05/22 12:24:34;;;;;;;6.07;1.80;;;23.30;75.20;;;;;;5070824;28;20521;-63
2022/05/22 12:27:05;;;;;;;6.38;1.58;;;23.40;75.60;;;;;;5072489;28;20049;-62
2022/05/22 12:29:55;;;;;;;6.10;1.88;;;23.40;74.90;;;;;;5072356;28;20099;-63
2022/05/22 12:32:24;;;;;;;6.57;1.77;;;23.50;74.90;;;;;;5072575;28;20102;-64
2022/05/22 12:34:53;;;;;;;5.80;2.10;;;23.50;75.60;;;;;;5072806;28;20049;-63
2022/05/22 12:37:37;;;;;;;7.68;2.40;;;23.60;75.20;;;;;;5070909;28;20493;-62
2022/05/22 12:41:07;;;;;;;7.00;2.40;;;23.70;75.60;;;;;;5072769;28;20140;-64
2022/05/22 12:43:34;;;;;;;11.38;2.40;;;23.80;75.20;;;;;;4987816;28;20133;-64
2022/05/22 12:46:03;;;;;;;5.38;1.77;;;23.80;75.00;;;;;;4990216;28;20124;-63
2022/05/22 12:48:34;;;;;;;5.78;1.90;;;23.80;75.10;;;;;;5030128;28;20064;-63
2022/05/22 12:51:31;;;;;;;3.95;1.45;;;23.70;75.20;;;;;;5072319;28;20076;-63
2022/05/22 12:54:27;;;;;;;5.10;1.80;;;23.80;75.00;;;;;;5072092;28;20045;-63
2022/05/22 12:56:53;;;;;;;5.30;1.60;;;24.10;75.00;;;;;;5082323;28;20040;-62
2022/05/22 12:59:30;;;;;;;3.88;1.63;;;24.10;74.80;;;;;;5090700;28;20043;-62
2022/05/22 13:01:58;;;;;;;4.10;1.52;;;24.00;74.30;;;;;;5092352;28;20044;-64
2022/05/22 13:04:31;;;;;;;5.40;1.40;;;24.00;74.10;;;;;;5090560;28;20139;-63
2022/05/22 13:07:11;;;;;;;4.20;1.35;;;23.90;74.10;;;;;;5092159;28;20039;-61
2022/05/22 13:09:46;;;;;;;7.75;1.77;;;23.70;74.30;;;;;;5091352;28;20066;-63
2022/05/22 13:12:18;;;;;;;7.90;1.85;;;23.80;74.60;;;;;;5091348;28;20043;-64
2022/05/22 13:14:47;;;;;;;6.20;1.45;;;23.70;74.60;;;;;;5089798;28;20048;-65
2022/05/22 13:17:15;;;;;;;6.43;2.08;;;23.60;74.90;;;;;;5089968;28;20370;-64
2022/05/22 13:19:53;;;;;;;6.50;1.88;;;23.70;74.80;;;;;;5091746;28;20044;-64